Time;durP1;ratioP1;P1;durP2;ratioP2;P2;SDS_P1;SDS_P2;PMS_P1;PMS_P2;Temp;Humidity;BMP_temperature;BMP_pressure;BME280_temperature;BME280_humidity;BME280_pressure;Samples;Min_cycle;Max_cycle;Signal;HPM_P1;HPM_P2
2023/10/27 00:02:21;;;;;;;6.95;4.43;;;;;;;19.65;52.62;99116.59;5006719;28;20022;-73
2023/10/27 00:04:46;;;;;;;7.38;4.43;;;;;;;19.66;52.59;99120.06;5006219;28;20026;-73
2023/10/27 00:07:11;;;;;;;7.00;4.50;;;;;;;19.64;52.57;99112.31;5005310;28;20135;-73
2023/10/27 00:09:37;;;;;;;6.78;4.30;;;;;;;19.64;52.60;99109.66;5006225;28;21045;-72
2023/10/27 00:12:04;;;;;;;6.95;4.60;;;;;;;19.63;52.33;99110.69;5006713;28;20030;-73
2023/10/27 00:14:29;;;;;;;6.30;4.25;;;;;;;19.64;52.75;99111.50;5005934;28;20164;-73
2023/10/27 00:16:54;;;;;;;8.38;4.95;;;;;;;19.62;52.50;99108.22;5006148;28;20120;-73
2023/10/27 00:19:19;;;;;;;6.53;4.00;;;;;;;19.61;52.47;99110.00;5006572;28;20033;-73
2023/10/27 00:21:45;;;;;;;6.00;4.15;;;;;;;19.61;52.63;99111.84;5007031;28;20805;-74
2023/10/27 00:24:11;;;;;;;6.10;4.28;;;;;;;19.60;52.66;99103.09;5006628;28;20034;-73
2023/10/27 00:26:36;;;;;;;6.53;4.25;;;;;;;19.59;52.62;99106.75;5006771;28;20045;-73
2023/10/27 00:29:02;;;;;;;6.18;4.00;;;;;;;19.61;52.50;99103.91;5006382;28;20038;-72
2023/10/27 00:31:27;;;;;;;6.10;4.20;;;;;;;19.57;52.62;99095.53;5006298;28;20042;-72
2023/10/27 00:33:52;;;;;;;6.90;4.40;;;;;;;19.60;52.54;99102.25;5006167;28;20050;-73
2023/10/27 00:36:17;;;;;;;6.28;4.25;;;;;;;19.60;52.61;99096.97;5006384;28;20732;-73
2023/10/27 00:38:46;;;;;;;5.88;3.50;;;;;;;19.57;52.76;99088.41;5006111;28;20057;-73
2023/10/27 00:41:12;;;;;;;6.40;4.18;;;;;;;19.56;52.45;99091.22;5006027;28;20030;-73
2023/10/27 00:43:37;;;;;;;6.63;4.30;;;;;;;19.57;52.51;99085.78;5006191;28;20133;-73
2023/10/27 00:46:02;;;;;;;6.38;4.20;;;;;;;19.57;52.47;99092.88;5006035;28;20030;-73
2023/10/27 00:48:28;;;;;;;7.18;4.35;;;;;;;19.56;52.59;99094.69;5006606;28;20069;-73
2023/10/27 00:50:54;;;;;;;8.18;4.47;;;;;;;19.55;52.46;99086.94;5005718;28;20153;-73
2023/10/27 00:53:22;;;;;;;7.30;4.70;;;;;;;19.53;52.49;99092.41;5006262;28;20052;-73
2023/10/27 00:55:49;;;;;;;8.60;4.72;;;;;;;19.55;52.43;99097.50;5003830;28;20037;-74
2023/10/27 00:58:15;;;;;;;7.47;4.38;;;;;;;19.52;52.39;99093.41;5006599;28;20398;-73
2023/10/27 01:00:42;;;;;;;8.00;4.32;;;;;;;19.53;52.53;99084.47;5009117;28;20042;-73
2023/10/27 01:03:07;;;;;;;8.35;4.72;;;;;;;19.52;52.59;99089.97;5009505;28;20109;-72
2023/10/27 01:05:32;;;;;;;6.72;4.05;;;;;;;19.51;52.25;99083.03;5009540;28;20037;-72
2023/10/27 01:07:59;;;;;;;6.80;4.20;;;;;;;19.50;52.72;99084.84;5009194;28;20049;-73
2023/10/27 01:10:25;;;;;;;8.07;4.60;;;;;;;19.52;52.55;99088.13;5008887;28;20041;-72
2023/10/27 01:12:51;;;;;;;6.47;4.60;;;;;;;19.50;52.68;99078.72;5009000;28;20037;-73
2023/10/27 01:15:17;;;;;;;6.80;4.43;;;;;;;19.51;52.52;99081.19;5009160;28;20080;-73
2023/10/27 01:17:43;;;;;;;7.07;4.45;;;;;;;19.51;52.81;99088.31;5009303;28;20083;-73
2023/10/27 01:20:09;;;;;;;8.20;4.70;;;;;;;19.50;52.56;99073.44;5008880;28;20042;-73
2023/10/27 01:22:47;;;;;;;7.53;4.18;;;;;;;19.47;52.34;99072.00;5009213;28;20042;-72
2023/10/27 01:25:13;;;;;;;6.53;3.95;;;;;;;19.48;52.55;99076.25;5009275;28;20026;-73
2023/10/27 01:27:38;;;;;;;6.10;4.05;;;;;;;19.49;52.47;99082.38;5007700;28;20116;-73
2023/10/27 01:30:04;;;;;;;7.28;4.20;;;;;;;19.49;53.04;99080.56;5008988;28;20117;-73
2023/10/27 01:32:29;;;;;;;6.53;4.07;;;;;;;19.46;52.37;99080.09;5008949;28;20113;-73
2023/10/27 01:34:54;;;;;;;8.85;4.00;;;;;;;19.47;52.36;99076.44;5008959;28;20050;-73
2023/10/27 01:37:20;;;;;;;6.00;3.88;;;;;;;19.47;52.48;99079.06;5009009;28;20409;-72
2023/10/27 01:39:47;;;;;;;6.63;4.15;;;;;;;19.46;52.41;99074.81;5008816;28;20065;-73
2023/10/27 01:42:12;;;;;;;6.30;3.72;;;;;;;19.47;52.24;99079.91;5008881;28;20121;-72
2023/10/27 01:44:38;;;;;;;7.53;4.00;;;;;;;19.45;52.50;99078.44;5008763;28;20121;-73
2023/10/27 01:47:03;;;;;;;6.20;4.05;;;;;;;19.45;52.62;99079.25;5008659;28;20113;-72
2023/10/27 01:49:28;;;;;;;5.53;3.58;;;;;;;19.46;52.55;99069.53;5008917;28;20084;-73
2023/10/27 01:51:54;;;;;;;5.95;3.88;;;;;;;19.46;52.54;99070.34;5008415;28;20025;-73
2023/10/27 01:54:19;;;;;;;6.73;3.50;;;;;;;19.44;52.54;99074.13;5005107;28;20514;-72
2023/10/27 01:56:44;;;;;;;8.05;3.92;;;;;;;19.45;52.86;99071.31;5005419;28;20752;-72
2023/10/27 01:59:10;;;;;;;6.30;3.88;;;;;;;19.42;52.44;99063.75;5007311;28;20026;-72
2023/10/27 02:01:35;;;;;;;7.78;3.75;;;;;;;19.43;52.53;99068.03;5006341;28;20034;-72
2023/10/27 02:04:00;;;;;;;7.28;3.50;;;;;;;19.41;52.47;99062.13;5007001;28;20030;-73
2023/10/27 02:06:28;;;;;;;6.70;3.45;;;;;;;19.43;52.24;99072.50;5006016;28;20034;-72
2023/10/27 02:08:53;;;;;;;5.70;3.50;;;;;;;19.43;52.32;99059.31;5004563;28;20038;-73
2023/10/27 02:11:20;;;;;;;7.03;3.55;;;;;;;19.42;52.45;99063.75;5007926;28;20045;-72
2023/10/27 02:13:45;;;;;;;5.43;3.30;;;;;;;19.41;52.52;99059.47;5007898;28;20046;-72
2023/10/27 02:16:10;;;;;;;6.45;3.58;;;;;;;19.41;52.52;99056.84;5007971;28;20030;-72
2023/10/27 02:18:36;;;;;;;6.57;3.55;;;;;;;19.41;52.37;99059.47;5007822;28;20426;-73
2023/10/27 02:21:01;;;;;;;5.13;3.13;;;;;;;19.41;52.53;99056.84;5007217;28;20026;-72
2023/10/27 02:23:26;;;;;;;7.55;3.25;;;;;;;19.40;52.40;99056.00;5007934;28;20026;-72
2023/10/27 02:25:52;;;;;;;6.47;3.63;;;;;;;19.40;52.35;99047.25;5007412;28;20034;-72
2023/10/27 02:28:18;;;;;;;5.97;3.53;;;;;;;19.37;52.40;99040.50;5007892;28;20026;-72
2023/10/27 02:30:44;;;;;;;8.35;3.10;;;;;;;19.39;52.47;99040.31;5007702;28;20476;-72
2023/10/27 02:33:09;;;;;;;6.55;3.30;;;;;;;19.38;52.49;99038.69;5007580;28;20534;-73
2023/10/27 02:35:34;;;;;;;5.40;3.20;;;;;;;19.37;52.21;99037.03;5008029;28;20117;-72
2023/10/27 02:38:00;;;;;;;7.53;3.35;;;;;;;19.38;52.42;99043.97;5008110;28;20030;-73
2023/10/27 02:40:25;;;;;;;8.55;3.22;;;;;;;19.37;52.52;99044.97;5006104;28;20037;-73
2023/10/27 02:42:50;;;;;;;6.63;3.00;;;;;;;19.36;52.67;99030.13;5007549;28;20052;-73
2023/10/27 02:45:15;;;;;;;6.00;3.13;;;;;;;19.36;52.41;99033.59;5007630;28;20097;-73
2023/10/27 02:47:41;;;;;;;6.33;3.07;;;;;;;19.36;52.30;99036.22;5007455;28;20064;-73
2023/10/27 02:50:06;;;;;;;5.35;2.88;;;;;;;19.36;52.57;99032.78;5007608;28;20617;-74
2023/10/27 02:52:32;;;;;;;5.10;3.10;;;;;;;19.35;52.64;99036.41;5007643;28;20026;-73
2023/10/27 02:54:57;;;;;;;5.97;2.92;;;;;;;19.34;52.31;99025.03;5006993;28;20393;-73
2023/10/27 02:57:23;;;;;;;7.60;2.83;;;;;;;19.35;52.25;99031.13;5007601;28;20030;-73
2023/10/27 02:59:48;;;;;;;6.18;3.38;;;;;;;19.34;52.38;99025.03;5006715;28;20759;-73
2023/10/27 03:02:14;;;;;;;6.22;3.00;;;;;;;19.33;52.45;99023.38;5007195;28;20029;-73
2023/10/27 03:04:39;;;;;;;5.70;2.85;;;;;;;19.34;52.53;99025.03;5007591;28;20033;-73
2023/10/27 03:07:05;;;;;;;6.10;2.65;;;;;;;19.31;52.24;99022.75;5007582;28;20140;-73
2023/10/27 03:09:30;;;;;;;5.00;2.60;;;;;;;19.31;52.61;99022.75;5006929;28;20037;-74
2023/10/27 03:11:55;;;;;;;5.18;2.78;;;;;;;19.30;52.38;99023.72;5007025;28;20433;-73
2023/10/27 03:14:21;;;;;;;5.70;2.50;;;;;;;19.30;52.42;99015.81;5007379;28;20113;-73
2023/10/27 03:16:46;;;;;;;5.80;2.78;;;;;;;19.31;52.26;99013.97;5007200;28;20294;-73
2023/10/27 03:19:11;;;;;;;5.50;2.70;;;;;;;19.30;52.39;99012.34;5007337;28;20025;-73
2023/10/27 03:21:37;;;;;;;5.68;2.92;;;;;;;19.32;52.47;99020.91;5006411;28;20116;-72
2023/10/27 03:24:02;;;;;;;4.50;2.30;;;;;;;19.32;52.44;99015.63;5006955;28;20542;-73
2023/10/27 03:26:28;;;;;;;5.18;2.80;;;;;;;19.30;52.57;99017.63;5006825;28;20083;-74
2023/10/27 03:28:53;;;;;;;5.10;2.85;;;;;;;19.29;52.41;99019.44;5006580;28;20124;-73
2023/10/27 03:31:19;;;;;;;4.65;2.20;;;;;;;19.30;52.36;99018.44;5006653;28;20109;-73
2023/10/27 03:33:44;;;;;;;5.20;2.58;;;;;;;19.29;52.54;99015.97;5006479;28;20046;-72
2023/10/27 03:36:09;;;;;;;5.88;2.75;;;;;;;19.29;52.13;99015.97;5006613;28;20030;-73
2023/10/27 03:38:35;;;;;;;6.05;2.50;;;;;;;19.28;52.40;99011.69;5006846;28;20026;-73
2023/10/27 03:41:00;;;;;;;4.60;2.40;;;;;;;19.28;52.22;99017.81;5006972;28;20121;-73
2023/10/27 03:43:26;;;;;;;4.93;2.33;;;;;;;19.28;52.35;99014.31;5006243;28;20038;-73
2023/10/27 03:45:51;;;;;;;6.60;2.63;;;;;;;19.28;52.54;99009.03;5006611;28;20383;-73
2023/10/27 03:48:16;;;;;;;4.45;2.78;;;;;;;19.27;52.34;98997.66;5006652;28;20477;-74
2023/10/27 03:50:42;;;;;;;5.63;2.80;;;;;;;19.27;52.28;99007.41;5005977;28;20515;-72
2023/10/27 03:53:07;;;;;;;4.78;2.10;;;;;;;19.26;52.24;99003.94;5006490;28;20033;-72
2023/10/27 03:55:32;;;;;;;5.07;2.20;;;;;;;19.25;52.42;99009.41;5006710;28;20042;-72
2023/10/27 03:58:17;;;;;;;5.05;2.47;;;;;;;19.24;52.51;99003.31;5006635;28;20030;-73
2023/10/27 04:00:43;;;;;;;4.38;2.20;;;;;;;19.25;52.24;99009.41;5006384;28;20462;-73
2023/10/27 04:03:09;;;;;;;4.90;2.33;;;;;;;19.26;52.24;99008.41;5006714;28;20026;-72
2023/10/27 04:05:34;;;;;;;5.75;2.35;;;;;;;19.26;52.35;99013.69;5006721;28;20047;-73
2023/10/27 04:08:00;;;;;;;4.78;2.45;;;;;;;19.26;52.39;99000.47;5006453;28;20041;-72
2023/10/27 04:10:25;;;;;;;4.95;2.08;;;;;;;19.25;52.17;98998.84;5006821;28;20076;-73
2023/10/27 04:12:51;;;;;;;5.88;2.22;;;;;;;19.25;52.36;98998.84;5006345;28;20036;-73
2023/10/27 04:15:16;;;;;;;4.55;2.30;;;;;;;19.24;52.24;99003.31;5006646;28;20180;-73
2023/10/27 04:17:42;;;;;;;6.68;2.40;;;;;;;19.24;52.33;99011.22;5005292;28;20133;-73
2023/10/27 04:20:07;;;;;;;4.83;2.03;;;;;;;19.24;52.60;99005.13;5006297;28;20097;-73
2023/10/27 04:22:33;;;;;;;5.75;2.10;;;;;;;19.24;52.24;99008.59;5006476;28;20279;-73
2023/10/27 04:24:59;;;;;;;5.20;2.28;;;;;;;19.23;52.33;99003.47;5006464;28;20100;-73
2023/10/27 04:27:25;;;;;;;5.18;2.08;;;;;;;19.23;52.26;99004.28;5006404;28;20048;-73
2023/10/27 04:29:50;;;;;;;5.80;2.10;;;;;;;19.23;52.45;99006.94;5006558;28;20079;-73
2023/10/27 04:32:15;;;;;;;5.65;2.20;;;;;;;19.23;52.26;99006.94;5007055;28;20473;-72
2023/10/27 04:34:42;;;;;;;5.10;2.05;;;;;;;19.22;52.34;99005.31;5009231;28;20491;-73
2023/10/27 04:37:07;;;;;;;5.88;2.30;;;;;;;19.22;52.31;99005.31;5010148;28;20030;-73
2023/10/27 04:39:33;;;;;;;5.82;2.00;;;;;;;19.23;52.18;99000.84;5009643;28;20030;-73
2023/10/27 04:41:58;;;;;;;6.35;2.53;;;;;;;19.20;52.31;99002.00;5009968;28;20363;-73
2023/10/27 04:44:25;;;;;;;5.35;2.05;;;;;;;19.21;52.32;99004.47;5010342;28;20100;-74
2023/10/27 04:46:51;;;;;;;6.05;2.15;;;;;;;19.20;52.31;99004.63;5009886;28;20056;-73
2023/10/27 04:49:17;;;;;;;6.97;2.38;;;;;;;19.20;52.05;99007.28;5009754;28;20129;-73
2023/10/27 04:51:42;;;;;;;5.32;2.20;;;;;;;19.19;52.09;99006.47;5008180;28;20502;-73
2023/10/27 04:54:07;;;;;;;4.50;2.10;;;;;;;19.20;52.35;99004.63;5009445;28;20050;-73
2023/10/27 04:56:33;;;;;;;4.60;2.03;;;;;;;19.19;52.07;99001.19;5008755;28;20030;-73
2023/10/27 04:58:59;;;;;;;5.40;1.95;;;;;;;19.19;52.24;99003.81;5008855;28;20289;-73
2023/10/27 05:01:25;;;;;;;4.82;2.20;;;;;;;19.19;52.20;98992.44;5009398;28;20034;-72
2023/10/27 05:03:51;;;;;;;5.07;2.08;;;;;;;19.17;52.31;98991.81;5009668;28;20038;-73
2023/10/27 05:06:16;;;;;;;4.30;2.05;;;;;;;19.18;52.38;98990.78;5007678;28;20450;-73
2023/10/27 05:08:42;;;;;;;5.53;2.38;;;;;;;19.18;52.20;98994.28;5009160;28;20030;-73
2023/10/27 05:11:07;;;;;;;4.57;2.05;;;;;;;19.17;52.24;98991.81;5009063;28;20029;-73
2023/10/27 05:13:32;;;;;;;4.90;1.92;;;;;;;19.17;52.19;98992.63;5008792;28;20080;-72
2023/10/27 05:15:58;;;;;;;6.60;1.92;;;;;;;19.18;52.26;98993.44;5008438;28;20482;-72
2023/10/27 05:18:24;;;;;;;4.15;1.75;;;;;;;19.18;52.48;98990.78;5009344;28;20117;-72
2023/10/27 05:20:49;;;;;;;5.38;1.60;;;;;;;19.16;52.25;98987.53;5008774;28;20064;-72
2023/10/27 05:23:14;;;;;;;4.90;1.80;;;;;;;19.17;52.08;98989.19;5007640;28;20037;-72
2023/10/27 05:25:41;;;;;;;4.85;1.80;;;;;;;19.16;52.16;98984.88;5008957;28;20042;-73
2023/10/27 05:28:08;;;;;;;4.80;1.73;;;;;;;19.14;52.36;98981.59;5008499;28;20466;-72
2023/10/27 05:30:37;;;;;;;4.88;2.08;;;;;;;19.15;52.09;98983.22;5009000;28;20026;-72
2023/10/27 05:33:02;;;;;;;4.45;1.83;;;;;;;19.13;52.18;98983.41;5008803;28;20088;-72
2023/10/27 05:35:28;;;;;;;7.18;2.08;;;;;;;19.14;52.33;98979.78;5008456;28;20033;-72
2023/10/27 05:37:53;;;;;;;5.20;1.90;;;;;;;19.16;52.23;98985.69;5008874;28;20037;-73
2023/10/27 05:40:18;;;;;;;4.40;2.00;;;;;;;19.17;52.20;98976.78;5008780;28;20026;-72
2023/10/27 05:42:44;;;;;;;5.35;2.03;;;;;;;19.20;52.34;98980.88;5008640;28;20144;-73
2023/10/27 05:45:11;;;;;;;3.78;1.80;;;;;;;19.20;52.31;98986.16;5007994;28;20030;-73
2023/10/27 05:47:38;;;;;;;6.90;1.90;;;;;;;19.21;52.31;98982.53;5008752;28;20084;-72
2023/10/27 05:50:08;;;;;;;6.32;2.00;;;;;;;19.20;52.42;98980.88;5007445;28;20033;-72
2023/10/27 05:52:34;;;;;;;5.00;1.98;;;;;;;19.19;52.41;98979.25;5008109;28;20478;-72
2023/10/27 05:54:59;;;;;;;3.83;1.95;;;;;;;19.20;52.50;98978.22;5008533;28;20100;-72
2023/10/27 05:57:24;;;;;;;3.35;1.50;;;;;;;19.19;52.48;98976.59;5008531;28;20053;-73
2023/10/27 05:59:50;;;;;;;3.60;1.63;;;;;;;19.21;52.37;98983.34;5008580;28;20072;-72
2023/10/27 06:02:15;;;;;;;4.82;1.90;;;;;;;19.20;52.54;98984.34;5008730;28;20033;-73
2023/10/27 06:04:40;;;;;;;4.65;1.83;;;;;;;19.23;52.51;98985.00;5008024;28;20025;-73
2023/10/27 06:07:05;;;;;;;2.85;1.30;;;;;;;19.23;52.62;98977.06;5008490;28;20022;-73
2023/10/27 06:09:31;;;;;;;3.45;1.50;;;;;;;19.21;52.65;98985.97;5008366;28;20482;-71
2023/10/27 06:11:57;;;;;;;4.55;1.58;;;;;;;19.24;52.58;98987.44;5008318;28;20041;-72
2023/10/27 06:14:22;;;;;;;4.15;1.60;;;;;;;19.26;52.36;98984.63;5008470;28;20390;-73
2023/10/27 06:16:47;;;;;;;4.25;1.60;;;;;;;19.26;52.63;98982.81;5008302;28;20029;-71
2023/10/27 06:19:13;;;;;;;2.63;1.42;;;;;;;19.27;52.65;98987.09;5007920;28;20541;-73
2023/10/27 06:21:38;;;;;;;4.38;1.50;;;;;;;19.30;52.60;98999.16;5008062;28;20032;-72
2023/10/27 06:24:04;;;;;;;3.70;1.70;;;;;;;19.30;52.38;98994.69;5006888;28;20386;-72
2023/10/27 06:26:29;;;;;;;3.50;1.55;;;;;;;19.30;52.58;98989.41;5007974;28;20091;-72
2023/10/27 06:28:55;;;;;;;4.93;1.88;;;;;;;19.31;52.61;98998.97;5008519;28;20038;-73
2023/10/27 06:31:20;;;;;;;4.40;1.50;;;;;;;19.32;52.54;98997.13;5006613;28;20065;-73
2023/10/27 06:33:46;;;;;;;4.10;1.60;;;;;;;19.32;52.52;98990.03;5007010;28;20115;-72
2023/10/27 06:36:12;;;;;;;4.18;1.83;;;;;;;19.33;52.63;98996.97;5007826;28;21453;-73
2023/10/27 06:38:37;;;;;;;3.47;1.60;;;;;;;19.35;52.63;98994.97;5008016;28;21397;-73
2023/10/27 06:41:03;;;;;;;4.63;1.60;;;;;;;19.35;52.46;99004.72;5007818;28;20098;-72
2023/10/27 06:43:30;;;;;;;4.57;1.80;;;;;;;19.36;52.43;99006.38;5007615;28;20044;-73
2023/10/27 06:45:55;;;;;;;3.42;1.30;;;;;;;19.35;52.46;99002.06;5007735;28;20103;-73
2023/10/27 06:48:20;;;;;;;4.43;1.50;;;;;;;19.36;52.40;99007.19;5007865;28;20061;-71
2023/10/27 06:50:46;;;;;;;4.15;1.55;;;;;;;19.37;52.78;99014.09;5007861;28;20030;-72
2023/10/27 06:53:11;;;;;;;4.18;1.83;;;;;;;19.38;52.72;99009.66;5007624;28;20121;-72
2023/10/27 06:55:36;;;;;;;3.25;1.40;;;;;;;19.39;52.49;99016.56;5006964;28;20499;-72
2023/10/27 06:58:03;;;;;;;4.20;1.70;;;;;;;19.39;52.35;99014.75;5007582;28;20037;-71
2023/10/27 07:00:29;;;;;;;4.78;1.70;;;;;;;19.39;52.38;99014.75;5007365;28;20026;-71
2023/10/27 07:02:54;;;;;;;4.20;1.70;;;;;;;19.39;52.52;99014.75;5007380;28;20359;-72
2023/10/27 07:05:20;;;;;;;4.82;1.70;;;;;;;19.41;52.69;99006.66;5002898;28;20120;-72
2023/10/27 07:07:46;;;;;;;4.75;1.70;;;;;;;19.41;52.86;99017.22;5003994;28;20118;-72
2023/10/27 07:10:12;;;;;;;6.20;1.55;;;;;;;19.38;53.35;99020.22;5006890;28;20033;-73
2023/10/27 07:12:38;;;;;;;6.00;1.90;;;;;;;19.35;53.09;99025.84;5005509;28;20056;-73
2023/10/27 07:15:03;;;;;;;5.03;1.67;;;;;;;19.42;53.08;99021.47;5003587;28;20026;-72
2023/10/27 07:17:29;;;;;;;5.65;1.52;;;;;;;19.46;52.85;99028.06;5004417;28;20076;-73
2023/10/27 07:19:54;;;;;;;8.32;2.15;;;;;;;19.52;52.66;99034.47;5003734;28;21772;-73
2023/10/27 07:22:20;;;;;;;4.55;1.60;;;;;;;19.53;52.45;99036.91;5005594;28;20034;-72
2023/10/27 07:24:48;;;;;;;3.75;1.35;;;;;;;19.54;52.46;99041.22;5006499;28;20073;-72
2023/10/27 07:27:14;;;;;;;3.65;1.30;;;;;;;19.54;52.64;99038.56;5005628;28;20430;-73
2023/10/27 07:29:39;;;;;;;5.90;1.52;;;;;;;19.54;52.68;99037.75;5006948;28;20034;-71
2023/10/27 07:32:05;;;;;;;3.22;1.30;;;;;;;19.56;52.62;99041.03;5006937;28;20076;-71
2023/10/27 07:34:30;;;;;;;4.40;1.35;;;;;;;19.56;52.62;99038.38;5006978;28;20376;-72
2023/10/27 07:36:56;;;;;;;3.25;1.55;;;;;;;19.57;52.95;99047.97;5006950;28;20077;-72
2023/10/27 07:39:22;;;;;;;3.92;1.35;;;;;;;19.55;52.80;99048.16;5006685;28;20450;-72
2023/10/27 07:41:49;;;;;;;5.50;1.55;;;;;;;19.57;52.75;99042.69;5006636;28;20033;-72
2023/10/27 07:44:15;;;;;;;4.70;1.52;;;;;;;19.57;52.91;99050.59;5007240;28;20096;-74
2023/10/27 07:46:40;;;;;;;4.60;1.50;;;;;;;19.55;52.78;99052.59;5007338;28;20022;-76
2023/10/27 07:49:06;;;;;;;4.30;1.40;;;;;;;19.54;52.78;99057.06;5007628;28;20057;-73
2023/10/27 07:51:32;;;;;;;3.70;1.40;;;;;;;19.52;53.20;99060.91;5006605;28;20026;-73
2023/10/27 07:53:57;;;;;;;3.40;1.50;;;;;;;19.51;53.35;99056.59;5007253;28;20469;-73
2023/10/27 07:56:23;;;;;;;4.22;1.40;;;;;;;19.54;53.27;99064.97;5007451;28;20048;-72
2023/10/27 07:58:48;;;;;;;5.53;1.30;;;;;;;19.53;53.36;99062.53;5006950;28;20116;-73
2023/10/27 08:01:13;;;;;;;3.30;1.33;;;;;;;19.51;53.55;99062.69;5007779;28;20034;-73
2023/10/27 08:03:39;;;;;;;3.92;1.52;;;;;;;19.52;53.50;99066.19;5008145;28;20049;-73
2023/10/27 08:06:08;;;;;;;4.75;1.40;;;;;;;19.53;53.40;99075.72;5007536;28;20033;-74
2023/10/27 08:08:33;;;;;;;3.53;1.40;;;;;;;19.53;53.36;99073.91;5011761;28;20037;-74
2023/10/27 08:10:59;;;;;;;6.50;1.35;;;;;;;19.53;53.53;99076.53;5012319;28;20026;-72
2023/10/27 08:13:25;;;;;;;3.47;1.10;;;;;;;19.53;53.57;99073.09;5013713;28;20352;-74
2023/10/27 08:15:50;;;;;;;2.67;1.23;;;;;;;19.53;53.70;99065.97;5013710;28;20044;-72
2023/10/27 08:18:15;;;;;;;2.95;1.40;;;;;;;19.53;53.68;99067.81;5014412;28;20045;-73
2023/10/27 08:20:41;;;;;;;4.05;1.40;;;;;;;19.55;53.53;99073.72;5012954;28;20042;-73
2023/10/27 08:23:06;;;;;;;2.97;1.10;;;;;;;19.52;53.64;99074.91;5013023;28;20093;-69
2023/10/27 08:25:32;;;;;;;5.80;1.38;;;;;;;19.50;54.08;99076.91;5010420;28;20030;-73
2023/10/27 08:27:57;;;;;;;6.13;1.42;;;;;;;19.49;53.96;99079.75;5006003;28;20037;-73
2023/10/27 08:30:23;;;;;;;4.10;1.40;;;;;;;19.52;53.88;99082.84;5008714;28;20565;-72
2023/10/27 08:32:48;;;;;;;2.90;1.27;;;;;;;19.49;54.16;99095.59;5009360;28;20060;-71
2023/10/27 08:35:14;;;;;;;3.97;1.38;;;;;;;19.43;54.77;99093.66;5007979;28;20136;-77
2023/10/27 08:37:39;;;;;;;8.23;1.65;;;;;;;19.42;54.61;99099.91;5009251;28;20022;-71
2023/10/27 08:40:10;;;;;;;4.22;1.73;;;;;;;19.38;55.01;99094.16;5009427;28;20493;-73
2023/10/27 08:42:36;;;;;;;3.60;1.25;;;;;;;19.35;55.31;99090.03;5009545;28;20135;-73
2023/10/27 08:45:01;;;;;;;5.97;1.80;;;;;;;19.44;55.43;99098.75;5009204;28;20061;-74
2023/10/27 08:47:30;;;;;;;9.30;2.10;;;;;;;19.52;55.85;99105.81;5008929;28;20034;-76
2023/10/27 08:49:56;;;;;;;7.25;1.90;;;;;;;19.56;55.41;99096.50;5009349;28;20044;-77
2023/10/27 08:52:21;;;;;;;7.25;2.17;;;;;;;19.54;56.00;99101.97;5009672;28;20022;-74
2023/10/27 08:54:46;;;;;;;7.13;2.42;;;;;;;19.52;56.39;99106.63;5009465;28;20459;-73
2023/10/27 08:57:12;;;;;;;7.53;2.00;;;;;;;19.54;56.21;99101.16;5006691;28;20065;-72
2023/10/27 08:59:38;;;;;;;6.15;2.15;;;;;;;19.57;56.11;99098.97;5008510;28;20057;-71
2023/10/27 09:02:04;;;;;;;8.95;2.53;;;;;;;19.54;56.27;99091.41;5008910;28;20116;-71
2023/10/27 09:04:31;;;;;;;5.28;1.92;;;;;;;19.63;56.06;99097.47;5007482;28;20065;-73
2023/10/27 09:06:57;;;;;;;6.60;2.00;;;;;;;19.66;55.95;99101.56;5006376;28;20477;-67
2023/10/27 09:09:23;;;;;;;8.20;2.25;;;;;;;19.67;55.40;99101.38;5007193;28;20034;-68
2023/10/27 09:11:49;;;;;;;6.82;2.30;;;;;;;19.70;55.50;99108.16;5009520;28;20497;-68
2023/10/27 09:14:27;;;;;;;10.27;2.33;;;;;;;19.72;55.25;99106.97;5008160;28;20041;-70
2023/10/27 09:17:05;;;;;;;11.70;2.60;;;;;;;19.75;55.32;99109.25;5009184;28;20117;-71
2023/10/27 09:19:31;;;;;;;6.10;1.85;;;;;;;19.78;55.10;99105.47;5009056;28;20033;-69
2023/10/27 09:21:57;;;;;;;6.63;3.20;;;;;;;19.78;55.08;99108.13;5009327;28;20426;-75
2023/10/27 09:24:30;;;;;;;6.53;2.00;;;;;;;19.77;54.97;99109.09;5007984;28;20422;-70
2023/10/27 09:26:57;;;;;;;5.63;1.80;;;;;;;19.76;54.99;99099.56;5008057;28;20030;-72
2023/10/27 09:29:23;;;;;;;5.38;1.67;;;;;;;19.75;55.05;99098.69;5008395;28;20306;-71
2023/10/27 09:31:50;;;;;;;6.68;2.13;;;;;;;19.76;55.11;99107.47;5007271;28;20352;-66
2023/10/27 09:34:20;;;;;;;6.72;1.83;;;;;;;19.73;55.14;99098.03;5008577;28;20064;-71
2023/10/27 09:36:53;;;;;;;4.75;1.80;;;;;;;19.73;54.88;99097.22;5008387;28;20092;-69
2023/10/27 09:39:20;;;;;;;6.68;1.92;;;;;;;19.74;55.07;99101.50;5007286;28;20026;-68
2023/10/27 09:41:58;;;;;;;7.13;1.73;;;;;;;19.72;55.03;99109.59;5007861;28;20432;-70
2023/10/27 09:44:35;;;;;;;5.82;1.58;;;;;;;19.71;54.92;99101.84;5008571;28;20026;-69
2023/10/27 09:47:05;;;;;;;6.90;1.73;;;;;;;19.72;54.92;99103.50;5008656;28;20479;-69
2023/10/27 09:49:38;;;;;;;5.50;2.45;;;;;;;19.70;55.09;99098.38;5008427;28;20068;-69
2023/10/27 09:52:09;;;;;;;6.68;1.92;;;;;;;19.71;55.07;99104.50;5004398;28;20061;-69
2023/10/27 09:54:35;;;;;;;5.78;1.77;;;;;;;19.70;54.85;99108.16;5008129;28;20037;-69
2023/10/27 09:57:00;;;;;;;5.43;2.28;;;;;;;19.70;55.22;99113.44;5008857;28;20044;-73
2023/10/27 09:59:28;;;;;;;5.78;1.92;;;;;;;19.68;54.92;99110.16;5008924;28;20030;-73
2023/10/27 10:01:55;;;;;;;5.07;1.65;;;;;;;19.64;55.17;99109.66;5008023;28;20029;-70
2023/10/27 10:04:52;;;;;;;8.55;1.90;;;;;;;19.63;55.28;99109.84;5008806;28;20470;-71
2023/10/27 10:07:29;;;;;;;9.32;1.98;;;;;;;19.64;55.36;99116.78;5008326;28;20113;-72
2023/10/27 10:09:55;;;;;;;5.53;2.00;;;;;;;19.64;55.13;99127.34;5008663;28;20088;-71
2023/10/27 10:12:20;;;;;;;4.38;1.60;;;;;;;19.62;55.46;99127.53;5008051;28;20133;-72
2023/10/27 10:14:50;;;;;;;7.75;1.80;;;;;;;19.62;55.36;99132.00;5008127;28;20045;-70
2023/10/27 10:17:40;;;;;;;4.70;2.00;;;;;;;19.64;55.48;99127.34;5009122;28;20026;-75
2023/10/27 10:20:06;;;;;;;7.43;1.88;;;;;;;19.64;55.60;99130.00;5008587;28;20038;-71
2023/10/27 10:22:38;;;;;;;4.35;2.15;;;;;;;19.58;55.59;99127.06;5000540;28;20112;-74
2023/10/27 10:25:18;;;;;;;8.23;2.05;;;;;;;19.57;56.19;99127.25;5007175;28;20084;-73
2023/10/27 10:28:08;;;;;;;8.10;2.15;;;;;;;19.53;56.49;99126.75;5007363;28;20037;-71
2023/10/27 10:30:38;;;;;;;5.03;2.00;;;;;;;19.53;56.08;99126.75;5006991;28;20033;-71
2023/10/27 10:33:16;;;;;;;5.60;1.80;;;;;;;19.54;56.34;99125.75;5007576;28;20081;-71
2023/10/27 10:35:46;;;;;;;6.25;1.83;;;;;;;19.63;56.20;99129.19;5005992;28;20033;-70
2023/10/27 10:38:22;;;;;;;5.05;2.05;;;;;;;19.69;55.82;99130.28;5006599;28;20053;-71
2023/10/27 10:40:58;;;;;;;4.65;1.90;;;;;;;19.70;55.67;99124.00;5007979;28;20108;-69
2023/10/27 10:43:33;;;;;;;5.05;2.20;;;;;;;19.70;55.67;99124.81;5007015;28;20483;-71
2023/10/27 10:46:11;;;;;;;5.45;1.88;;;;;;;19.73;55.58;99127.13;5007299;28;20522;-72
2023/10/27 10:48:45;;;;;;;7.65;2.00;;;;;;;19.71;55.58;99129.13;5005982;28;20434;-73
2023/10/27 10:51:15;;;;;;;5.28;2.00;;;;;;;19.70;55.73;99126.66;5007353;28;20577;-72
2023/10/27 10:53:50;;;;;;;4.32;1.98;;;;;;;19.68;55.81;99124.19;5007023;28;20038;-71
2023/10/27 10:56:16;;;;;;;5.20;2.13;;;;;;;19.67;55.74;99124.34;5006943;28;20079;-73
2023/10/27 10:58:41;;;;;;;4.65;2.00;;;;;;;19.69;55.42;99127.63;5005882;28;20037;-71
2023/10/27 11:01:15;;;;;;;6.20;3.77;;;;;;;19.69;55.57;99125.84;5007044;28;20095;-72
2023/10/27 11:03:49;;;;;;;6.43;1.92;;;;;;;19.69;55.71;99127.63;5001331;28;20275;-69
2023/10/27 11:06:17;;;;;;;5.75;2.40;;;;;;;19.55;56.31;99116.84;5001407;28;20128;-76
2023/10/27 11:08:44;;;;;;;8.18;2.47;;;;;;;19.47;56.80;99121.34;5007173;28;20113;-73
2023/10/27 11:11:14;;;;;;;6.07;2.30;;;;;;;19.42;56.98;99121.06;5005870;28;20065;-72
2023/10/27 11:13:41;;;;;;;6.15;2.35;;;;;;;19.37;56.97;99118.94;5005007;28;20057;-71
2023/10/27 11:16:16;;;;;;;6.82;2.20;;;;;;;19.35;57.10;99124.38;5006255;28;20088;-74
2023/10/27 11:18:46;;;;;;;5.97;1.92;;;;;;;19.36;57.04;99119.94;5006146;28;20526;-72
2023/10/27 11:21:30;;;;;;;9.35;2.80;;;;;;;19.31;56.96;99117.81;5005771;28;20026;-75
2023/10/27 11:23:56;;;;;;;8.07;2.40;;;;;;;19.35;57.19;99118.28;5006582;28;20060;-74
2023/10/27 11:26:24;;;;;;;5.18;2.00;;;;;;;19.34;57.16;99117.47;5006401;28;20268;-73
2023/10/27 11:28:49;;;;;;;5.68;2.20;;;;;;;19.34;57.11;99114.00;5005157;28;20087;-74
2023/10/27 11:31:30;;;;;;;4.82;1.83;;;;;;;19.34;57.33;99120.13;5006103;28;20038;-76
2023/10/27 11:34:06;;;;;;;6.78;2.30;;;;;;;19.31;57.07;99123.09;5005145;28;20096;-75